Flight Track Log - Related Links

Times and Time Zones

All times are in EDT time to prevent confusion due to time zone crossing. See the AMF5135 flight status page for this flight to view local times or setup timezone preferences in your user account.

Time Position Orientation Groundspeed Altitude Reporting Facility
EDT Latitude Longitude Course Direction KTS MPH feet Rate Location/Type
Fri 10:24:20 AM 29.3558 -100.8644 45° Northeast 126 145 4,000  Level Houston Center
Fri 10:25:23 AM 29.3700 -100.7900 78° East 169 194 4,000  Level Houston Center
Fri 10:26:25 AM 29.4089 -100.7297 53° Northeast 212 244 4,000 484 Level Houston Center
Fri 10:27:27 AM 29.4594 -100.6872 36° Northeast 225 259 5,000 1,016 Climbing Houston Center
Fri 10:28:00 AM 29.6299 -100.6140 44° Northeast  Level FlightAware Approximate
Fri 10:28:29 AM 29.5056 -100.6525 33° Northeast 208 239 6,100  Level Houston Center
Fri 10:29:00 AM 29.6743 -100.5638 45° Northeast  Level FlightAware Approximate
Fri 10:29:31 AM 29.5475 -100.6150 38° Northeast 195 224 7,300  Level Houston Center
Fri 10:30:33 AM 29.5881 -100.5747 41° Northeast 194 223 8,400 823 Climbing Houston Center
Fri 10:31:35 AM 29.6378 -100.5281 39° Northeast 191 220 9,000 290 Climbing Houston Center
Fri 10:32:37 AM 29.6858 -100.4839 39° Northeast 214 246 9,000  Level Houston Center
Fri 10:33:39 AM 29.7328 -100.4433 37° Northeast 213 245 9,000  Level Houston Center
Fri 10:34:41 AM 29.7764 -100.3992 41° Northeast 210 242 9,000  Level Houston Center
Fri 10:35:44 AM 29.8219 -100.3569 39° Northeast 210 242 9,000  Level Houston Center
Fri 10:36:46 AM 29.8778 -100.3083 37° Northeast 210 242 9,000  Level Houston Center
Fri 10:37:48 AM 29.9231 -100.2667 39° Northeast 210 242 9,000 48 Level Houston Center
Fri 10:38:50 AM 29.9678 -100.2253 39° Northeast 210 242 9,100 48 Climbing Houston Center
Fri 10:39:52 AM 30.0133 -100.1850 37° Northeast 210 242 9,100  Level Houston Center
Fri 10:40:54 AM 30.0578 -100.1433 39° Northeast 209 241 9,100  Level Houston Center
Fri 10:41:56 AM 30.1164 -100.1025 31° Northeast 209 241 9,100  Level Houston Center
Fri 10:42:58 AM 30.1683 -100.0711 28° Northeast 210 242 9,100  Level Houston Center
Fri 10:44:01 AM 30.2094 -100.0278 42° Northeast 207 238 9,100  Level Houston Center
Fri 10:45:03 AM 30.2425 -99.9728 55° Northeast 207 238 9,100  Level Houston Center
Fri 10:46:05 AM 30.2761 -99.9172 55° Northeast 209 241 9,100  Level Houston Center
Fri 10:47:07 AM 30.3167 -99.8517 54° Northeast 209 241 9,100  Level Houston Center
Fri 10:48:09 AM 30.3503 -99.7967 55° Northeast 209 241 9,100  Level Houston Center
Fri 10:49:11 AM 30.3836 -99.7400 56° Northeast 211 243 9,100  Level Houston Center
Fri 10:50:13 AM 30.4169 -99.6844 55° Northeast 211 243 9,100  Level Houston Center
Fri 10:51:15 AM 30.4497 -99.6278 56° Northeast 212 244 9,100  Level Houston Center
Fri 10:52:17 AM 30.4861 -99.5569 59° Northeast 213 245 9,100  Level Houston Center
Fri 10:53:20 AM 30.5156 -99.4978 60° Northeast 213 245 9,100  Level Houston Center
Fri 10:54:22 AM 30.5472 -99.4389 58° Northeast 214 246 9,100  Level Houston Center
Fri 10:55:24 AM 30.5775 -99.3808 59° Northeast 213 245 9,100  Level Houston Center
Fri 10:56:26 AM 30.6086 -99.3217 59° Northeast 214 246 9,100  Level Houston Center
Fri 10:57:28 AM 30.6383 -99.2611 60° Northeast 216 249 9,100  Level Houston Center
Fri 10:58:30 AM 30.6767 -99.1908 58° Northeast 216 249 9,100  Level Houston Center
Fri 10:59:32 AM 30.7064 -99.1308 60° Northeast 213 245 9,100  Level Houston Center
Fri 11:00:34 AM 30.7364 -99.0694 60° Northeast 215 247 9,100  Level Houston Center
Fri 11:01:37 AM 30.7689 -99.0122 57° Northeast 211 243 9,100  Level Houston Center
Fri 11:02:39 AM 30.7972 -98.9558 60° Northeast 203 234 9,100 -48 Level Houston Center
Fri 11:03:41 AM 30.8258 -98.8981 60° Northeast 204 235 9,000 -48 Descending Houston Center
Fri 11:04:43 AM 30.8572 -98.8419 57° Northeast 204 235 9,000  Level Houston Center
Fri 11:05:45 AM 30.8897 -98.7747 61° Northeast 203 234 9,000 -48 Level Houston Center
Fri 11:06:47 AM 30.9178 -98.7164 61° Northeast 205 236 8,900 -48 Descending Houston Center
Fri 11:07:49 AM 30.9458 -98.6583 61° Northeast 204 235 8,900 48 Level Houston Center
Fri 11:08:51 AM 30.9753 -98.6019 59° Northeast 203 234 9,000 48 Climbing Houston Center
Fri 11:09:54 AM 31.0014 -98.5433 63° Northeast 201 231 9,000 48 Level Houston Center
Fri 11:10:56 AM 31.0308 -98.4856 59° Northeast 203 234 9,100 48 Climbing Houston Center
Fri 11:11:58 AM 31.0794 -98.4494 32° Northeast 197 227 9,100 -48 Level Houston Center
Fri 11:13:00 AM 31.1369 -98.4197 24° Northeast 201 231 9,000  Descending Houston Center
Fri 11:13:26 AM 31.1531 -98.4086 31° Northeast 197 227 9,100  Climbing Fort Worth Center
Fri 11:14:26 AM 31.2053 -98.3800 25° Northeast 198 228 9,000  Descending Fort Worth Center
Fri 11:15:27 AM 31.2536 -98.3561 23° Northeast 198 228 9,100 49 Climbing Fort Worth Center
Fri 11:16:28 AM 31.3058 -98.3250 27° Northeast 199 229 9,100 -50 Level Fort Worth Center
Fri 11:17:28 AM 31.3522 -98.2989 26° Northeast 197 227 9,000  Descending Fort Worth Center
Fri 11:18:29 AM 31.4044 -98.2725 23° Northeast 196 226 9,100 48 Climbing Fort Worth Center
Fri 11:19:34 AM 31.4589 -98.2389 28° Northeast 220 253 9,100 -48 Level Fort Worth Center
Fri 11:20:34 AM 31.5092 -98.2103 26° Northeast 206 237 9,000  Descending Fort Worth Center
Fri 11:21:34 AM 31.5553 -98.1861 24° Northeast 194 223 9,100 50 Climbing Fort Worth Center
Fri 11:22:34 AM 31.6036 -98.1572 27° Northeast 193 222 9,100  Level Fort Worth Center
Fri 11:23:34 AM 31.6581 -98.1283 24° Northeast 193 222 9,100  Level Fort Worth Center
Fri 11:24:34 AM 31.7042 -98.1019 26° Northeast 198 228 9,100  Level Fort Worth Center
Fri 11:25:34 AM 31.7544 -98.0731 26° Northeast 198 228 9,100  Level Fort Worth Center
Fri 11:26:34 AM 31.8047 -98.0442 26° Northeast 198 228 9,100  Level Fort Worth Center
Fri 11:27:34 AM 31.8611 -98.0175 22° Northeast 193 222 9,100  Level Fort Worth Center
Fri 11:28:34 AM 31.9092 -97.9958 21° North 188 216 9,100  Level Fort Worth Center
Fri 11:29:34 AM 31.9511 -97.9764 21° North 188 216 9,100  Level Fort Worth Center
Fri 11:30:34 AM 32.0117 -97.9500 20° North 188 216 9,100  Level Fort Worth Center
Fri 11:31:34 AM 32.0619 -97.9283 20° North 188 216 9,100  Level Fort Worth Center
Fri 11:32:34 AM 32.1100 -97.9064 21° North 188 216 9,100  Level Fort Worth Center
Fri 11:33:34 AM 32.1644 -97.8747 26° Northeast 188 216 9,100  Level Fort Worth Center
Fri 11:34:34 AM 32.2022 -97.8333 43° Northeast 199 229 9,100 -50 Level Fort Worth Center
Fri 11:35:34 AM 32.2461 -97.7769 47° Northeast 204 235 9,000 -50 Descending Fort Worth Center
Fri 11:36:34 AM 32.2861 -97.7303 45° Northeast 204 235 9,000  Level Fort Worth Center
Fri 11:37:34 AM 32.3342 -97.6839 39° Northeast 204 235 9,000 -200 Level Fort Worth Center
Fri 11:38:34 AM 32.3758 -97.6422 40° Northeast 211 243 8,600 -650 Descending Fort Worth Center
Fri 11:39:34 AM 32.4303 -97.5881 40° Northeast 211 243 7,700 -850 Descending Fort Worth Center
Fri 11:40:34 AM 32.4722 -97.5439 42° Northeast 216 249 6,900 -800 Descending Fort Worth Center
Fri 11:41:34 AM 32.5244 -97.4872 42° Northeast 216 249 6,100 -450 Descending Fort Worth Center
Fri 11:42:34 AM 32.5642 -97.4431 43° Northeast 216 249 6,000 -50 Descending Fort Worth Center
Fri 11:43:34 AM 32.6183 -97.4061 30° Northeast 203 234 6,000 -50 Level Fort Worth Center
Fri 11:44:34 AM 32.6600 -97.3689 37° Northeast 202 232 5,900 -400 Descending Fort Worth Center
Fri 11:45:34 AM 32.7164 -97.3244 34° Northeast 212 244 5,200 -450 Descending Fort Worth Center
Fri 11:46:34 AM 32.7644 -97.2947 27° Northeast 217 250 5,000 -100 Descending Fort Worth Center
Fri 11:47:34 AM 32.8250 -97.2675 21° North 206 237 5,000  Level Fort Worth Center
Fri 11:48:34 AM 32.8731 -97.2453 21° North 206 237 5,000  Level Fort Worth Center
Fri 11:49:34 AM 32.9333 -97.2178 21° North 206 237 5,000 -166 Level Fort Worth Center
Fri 11:51:35 AM 33.0500 -97.1667 20° North 212 244 4,500 -530 Descending Dallas / Fort Worth TRACON
Fri 11:52:35 AM 33.1000 -97.1333 29° Northeast 217 250 3,400 -750 Descending Dallas / Fort Worth TRACON
Fri 11:53:35 AM 33.1333 -97.1000 40° Northeast 180 207 3,000 -200 Descending Dallas / Fort Worth TRACON
Fri 11:54:35 AM 33.1000 -97.0500 129° Southeast 171 197 3,000 -350 Level Dallas / Fort Worth TRACON
Fri 11:55:35 AM 33.0500 -97.0500 180° South 162 186 2,300 -700 Descending Dallas / Fort Worth TRACON

Login

Don't have an account? Register now (free) for customized features, flight alerts, and more!